Time;durP1;ratioP1;P1;durP2;ratioP2;P2;SDS_P1;SDS_P2;PMS_P1;PMS_P2;Temp;Humidity;BMP_temperature;BMP_pressure;BME280_temperature;BME280_humidity;BME280_pressure;Samples;Min_cycle;Max_cycle;Signal;HPM_P1;HPM_P2
2022/03/12 00:01:52;;;;;;;;;;;7.10;52.20;;;;;;5109086;28;19924;-56
2022/03/12 00:04:17;;;;;;;;;;;7.20;52.00;;;;;;5109211;28;19919;-55
2022/03/12 00:06:43;;;;;;;;;;;7.20;52.00;;;;;;5081885;28;20269;-56
2022/03/12 00:09:08;;;;;;;;;;;7.10;52.00;;;;;;5096902;28;19926;-56
2022/03/12 00:11:35;;;;;;;;;;;7.10;52.00;;;;;;5108484;28;19926;-56
2022/03/12 00:14:02;;;;;;;;;;;7.10;52.10;;;;;;5111708;27;19926;-56
2022/03/12 00:16:28;;;;;;;;;;;7.10;52.20;;;;;;5119743;27;19919;-56
2022/03/12 00:18:55;;;;;;;;;;;7.20;51.70;;;;;;5114154;28;19996;-56
2022/03/12 00:21:24;;;;;;;;;;;7.10;51.90;;;;;;5113659;28;19966;-54
2022/03/12 00:23:50;;;;;;;;;;;7.10;52.30;;;;;;5113447;28;19919;-55
2022/03/12 00:26:17;;;;;;;;;;;7.00;52.50;;;;;;5113087;28;20022;-56
2022/03/12 00:28:43;;;;;;;;;;;7.00;52.90;;;;;;5105955;28;20284;-56
2022/03/12 00:31:09;;;;;;;;;;;7.00;52.60;;;;;;5112626;27;19920;-56
2022/03/12 00:33:35;;;;;;;;;;;7.00;53.10;;;;;;5113154;27;19927;-55
2022/03/12 00:36:02;;;;;;;;;;;6.90;53.00;;;;;;5112306;28;19920;-57
2022/03/12 00:38:28;;;;;;;;;;;6.90;53.30;;;;;;5112646;28;19928;-55
2022/03/12 00:40:53;;;;;;;;;;;6.90;53.60;;;;;;5113881;28;19927;-56
2022/03/12 00:43:19;;;;;;;;;;;7.00;53.10;;;;;;5103476;28;20348;-55
2022/03/12 00:45:45;;;;;;;;;;;7.00;52.80;;;;;;5094169;28;19919;-56
2022/03/12 00:48:10;;;;;;;;;;;7.00;52.80;;;;;;5113735;28;20310;-55
2022/03/12 00:50:36;;;;;;;;;;;7.00;52.80;;;;;;5111506;28;20172;-56
2022/03/12 00:53:01;;;;;;;;;;;7.00;52.80;;;;;;5099434;28;20011;-56
2022/03/12 00:55:27;;;;;;;;;;;7.00;52.80;;;;;;5102097;28;19926;-55
2022/03/12 00:57:52;;;;;;;;;;;7.10;52.90;;;;;;5092929;28;19938;-56
2022/03/12 01:00:19;;;;;;;;;;;7.10;52.70;;;;;;5095029;28;20014;-55
2022/03/12 01:02:45;;;;;;;;;;;7.00;53.00;;;;;;5090395;28;20014;-56
2022/03/12 01:05:12;;;;;;;;;;;7.00;53.30;;;;;;5095966;28;19995;-55
2022/03/12 01:07:38;;;;;;;;;;;7.00;53.20;;;;;;5091788;28;19927;-55
2022/03/12 01:10:03;;;;;;;;;;;7.00;53.30;;;;;;5093675;28;20362;-56
2022/03/12 01:12:29;;;;;;;;;;;7.00;53.30;;;;;;5091032;28;20036;-56
2022/03/12 01:14:54;;;;;;;;;;;7.00;53.40;;;;;;5091010;28;20052;-54
2022/03/12 01:17:21;;;;;;;;;;;7.00;53.00;;;;;;5091762;28;19920;-56
2022/03/12 01:19:46;;;;;;;;;;;7.00;53.30;;;;;;5092247;28;19931;-56
2022/03/12 01:22:17;;;;;;;;;;;7.00;53.20;;;;;;5090621;28;19924;-55
2022/03/12 01:24:43;;;;;;;;;;;6.90;53.40;;;;;;5089615;28;20296;-55
2022/03/12 01:27:08;;;;;;;;;;;7.00;53.40;;;;;;5098814;28;19927;-56
2022/03/12 01:29:33;;;;;;;;;;;7.10;52.50;;;;;;5099166;28;19924;-56
2022/03/12 01:31:59;;;;;;;;;;;7.10;52.60;;;;;;5093506;28;19926;-56
2022/03/12 01:34:24;;;;;;;;;;;7.10;52.80;;;;;;5093799;28;20379;-55
2022/03/12 01:36:50;;;;;;;;;;;7.10;52.90;;;;;;5100580;28;20019;-56
2022/03/12 01:39:15;;;;;;;;;;;7.00;53.10;;;;;;5090413;28;19920;-55
2022/03/12 01:41:42;;;;;;;;;;;7.00;53.20;;;;;;5093697;28;19928;-56
2022/03/12 01:44:07;;;;;;;;;;;7.10;52.70;;;;;;5091079;28;19920;-56
2022/03/12 01:46:34;;;;;;;;;;;7.10;53.00;;;;;;5091869;28;20283;-55
2022/03/12 01:49:03;;;;;;;;;;;7.00;53.20;;;;;;5089518;28;19920;-54
2022/03/12 01:51:28;;;;;;;;;;;7.00;53.60;;;;;;5100210;28;19926;-56
2022/03/12 01:53:54;;;;;;;;;;;6.90;53.50;;;;;;5110385;28;20006;-56
2022/03/12 01:56:20;;;;;;;;;;;6.90;53.50;;;;;;5110692;28;19978;-55
2022/03/12 01:58:46;;;;;;;;;;;6.90;53.90;;;;;;5111199;28;19924;-55
2022/03/12 02:01:13;;;;;;;;;;;6.90;54.30;;;;;;5089508;28;20010;-56
2022/03/12 02:03:38;;;;;;;;;;;6.80;54.60;;;;;;5110683;28;19920;-56
2022/03/12 02:06:05;;;;;;;;;;;6.70;54.50;;;;;;5109106;28;19966;-56
2022/03/12 02:08:30;;;;;;;;;;;6.70;54.60;;;;;;5109355;28;19948;-56
2022/03/12 02:10:57;;;;;;;;;;;6.70;54.50;;;;;;5109062;28;20006;-55
2022/03/12 02:13:24;;;;;;;;;;;6.70;55.10;;;;;;5110252;28;19928;-56
2022/03/12 02:15:51;;;;;;;;;;;6.70;54.90;;;;;;5098031;28;21824;-56
2022/03/12 02:18:17;;;;;;;;;;;6.60;55.80;;;;;;5110048;27;20023;-56
2022/03/12 02:20:43;;;;;;;;;;;6.70;55.00;;;;;;5107705;27;20030;-56
2022/03/12 02:23:09;;;;;;;;;;;6.60;55.10;;;;;;5108582;28;19920;-56
2022/03/12 02:25:34;;;;;;;;;;;6.60;54.70;;;;;;5110434;28;20008;-56
2022/03/12 02:28:01;;;;;;;;;;;6.60;55.00;;;;;;5094814;28;20006;-56
2022/03/12 02:30:34;;;;;;;;;;;6.60;55.40;;;;;;5105428;28;20382;-56
2022/03/12 02:33:03;;;;;;;;;;;6.60;54.90;;;;;;5106288;28;20015;-56
2022/03/12 02:35:34;;;;;;;;;;;6.60;55.20;;;;;;5100633;28;19971;-56
2022/03/12 02:38:00;;;;;;;;;;;6.70;55.10;;;;;;5087008;28;19935;-57
2022/03/12 02:40:25;;;;;;;;;;;6.60;55.20;;;;;;5107869;28;20301;-56
2022/03/12 02:42:53;;;;;;;;;;;6.70;55.20;;;;;;5110241;28;19920;-56
2022/03/12 02:45:19;;;;;;;;;;;6.70;54.90;;;;;;5109415;28;19926;-56
2022/03/12 02:47:45;;;;;;;;;;;6.60;55.00;;;;;;5108540;28;19931;-57
2022/03/12 02:52:41;;;;;;;;;;;6.70;55.10;;;;;;5123307;22;20011;-73
2022/03/12 02:55:09;;;;;;;;;;;6.70;55.20;;;;;;5071826;28;20114;-74
2022/03/12 02:57:34;;;;;;;;;;;6.60;55.10;;;;;;5086797;28;19920;-73
2022/03/12 03:00:06;;;;;;;;;;;6.60;55.00;;;;;;5089755;28;19924;-74
2022/03/12 03:02:35;;;;;;;;;;;6.60;55.20;;;;;;5070428;28;20693;-74
2022/03/12 03:05:01;;;;;;;;;;;6.60;55.20;;;;;;5087381;28;19946;-74
2022/03/12 03:07:26;;;;;;;;;;;6.60;55.10;;;;;;5050736;28;19924;-74
2022/03/12 03:09:52;;;;;;;;;;;6.60;55.10;;;;;;5050623;28;20010;-74
2022/03/12 03:12:18;;;;;;;;;;;6.60;55.10;;;;;;5065030;28;19920;-73
2022/03/12 03:14:45;;;;;;;;;;;6.60;55.10;;;;;;5054497;28;20006;-72
2022/03/12 03:17:12;;;;;;;;;;;6.50;55.20;;;;;;5053814;28;19963;-72
2022/03/12 03:19:38;;;;;;;;;;;6.50;55.00;;;;;;5052493;28;19921;-73
2022/03/12 03:22:04;;;;;;;;;;;6.50;55.10;;;;;;5085617;28;19927;-72
2022/03/12 03:24:30;;;;;;;;;;;6.60;54.90;;;;;;5088758;28;19924;-72
2022/03/12 03:26:57;;;;;;;;;;;6.50;54.80;;;;;;5083176;28;19920;-73
2022/03/12 03:29:23;;;;;;;;;;;6.50;55.00;;;;;;5071121;28;19920;-72
2022/03/12 03:31:49;;;;;;;;;;;6.50;55.00;;;;;;5085583;28;19927;-73
2022/03/12 03:34:15;;;;;;;;;;;6.50;55.20;;;;;;5090362;28;19920;-72
2022/03/12 03:36:40;;;;;;;;;;;6.50;55.00;;;;;;5079370;28;20367;-72
2022/03/12 03:39:06;;;;;;;;;;;6.50;55.10;;;;;;5070061;28;20597;-73
2022/03/12 03:41:33;;;;;;;;;;;6.40;55.80;;;;;;5087201;28;19959;-73
2022/03/12 03:43:58;;;;;;;;;;;6.50;55.10;;;;;;5073300;28;19971;-73
2022/03/12 03:46:24;;;;;;;;;;;6.40;55.30;;;;;;5087745;28;19959;-73
2022/03/12 03:48:51;;;;;;;;;;;6.30;55.60;;;;;;5057033;28;19932;-73
2022/03/12 03:51:17;;;;;;;;;;;6.30;55.20;;;;;;5080635;28;20391;-73
2022/03/12 03:53:43;;;;;;;;;;;6.30;55.70;;;;;;5054270;28;19927;-73
2022/03/12 03:56:08;;;;;;;;;;;6.30;56.00;;;;;;5054603;28;20022;-74
2022/03/12 03:58:35;;;;;;;;;;;6.30;56.10;;;;;;5072358;28;19920;-73
2022/03/12 04:01:11;;;;;;;;;;;6.30;55.70;;;;;;5070909;28;19928;-73
2022/03/12 04:03:37;;;;;;;;;;;6.30;55.70;;;;;;5054543;28;19920;-75
2022/03/12 04:06:04;;;;;;;;;;;6.30;55.80;;;;;;5049293;28;19925;-74
2022/03/12 04:08:29;;;;;;;;;;;6.40;55.90;;;;;;5070816;28;19928;-75
2022/03/12 04:10:55;;;;;;;;;;;6.30;55.80;;;;;;5055367;28;19921;-75
2022/03/12 04:13:21;;;;;;;;;;;6.30;56.30;;;;;;5055599;28;19921;-74
2022/03/12 04:15:47;;;;;;;;;;;6.20;56.40;;;;;;5073704;28;19920;-74
2022/03/12 04:18:16;;;;;;;;;;;6.20;56.50;;;;;;5055482;28;19924;-73
2022/03/12 04:20:45;;;;;;;;;;;6.20;56.50;;;;;;5037619;28;19920;-74
2022/03/12 04:23:12;;;;;;;;;;;6.20;56.90;;;;;;5072659;28;19928;-73
2022/03/12 04:25:38;;;;;;;;;;;6.10;56.70;;;;;;5072648;28;19920;-73
2022/03/12 04:28:04;;;;;;;;;;;6.20;56.90;;;;;;5073388;28;20229;-74
2022/03/12 04:30:31;;;;;;;;;;;6.10;57.50;;;;;;5054976;28;19924;-73
2022/03/12 04:32:56;;;;;;;;;;;6.10;57.40;;;;;;5051470;28;19956;-74
2022/03/12 04:35:22;;;;;;;;;;;6.10;57.90;;;;;;5073451;28;19951;-74
2022/03/12 04:37:48;;;;;;;;;;;6.10;58.00;;;;;;5050339;28;19921;-75
2022/03/12 04:40:19;;;;;;;;;;;6.00;58.00;;;;;;5054141;28;19920;-73
2022/03/12 04:42:45;;;;;;;;;;;6.10;57.00;;;;;;5072126;28;20295;-73
2022/03/12 04:45:11;;;;;;;;;;;6.10;57.30;;;;;;5054863;28;19939;-74
2022/03/12 04:47:40;;;;;;;;;;;6.00;57.60;;;;;;5054070;28;20033;-74
2022/03/12 04:50:06;;;;;;;;;;;6.00;58.50;;;;;;5071210;28;19931;-73
2022/03/12 04:52:32;;;;;;;;;;;5.90;58.00;;;;;;5074194;28;19921;-74
2022/03/12 04:54:58;;;;;;;;;;;5.90;58.30;;;;;;5073302;28;19925;-75
2022/03/12 04:57:23;;;;;;;;;;;5.80;58.60;;;;;;5073702;28;19947;-75
2022/03/12 04:59:49;;;;;;;;;;;5.80;58.90;;;;;;5037426;28;19921;-76
2022/03/12 05:02:14;;;;;;;;;;;5.70;59.10;;;;;;5051304;28;19970;-76
2022/03/12 05:04:40;;;;;;;;;;;5.60;59.30;;;;;;5070984;28;19928;-76
2022/03/12 05:07:06;;;;;;;;;;;5.60;59.80;;;;;;5042532;28;20364;-73
2022/03/12 05:09:32;;;;;;;;;;;5.50;60.20;;;;;;5055973;28;19920;-74
2022/03/12 05:12:01;;;;;;;;;;;5.40;60.40;;;;;;5073169;28;19921;-74
2022/03/12 05:14:26;;;;;;;;;;;5.40;60.70;;;;;;5053025;28;20359;-74
2022/03/12 05:16:51;;;;;;;;;;;5.30;60.50;;;;;;5055528;28;20017;-74
2022/03/12 05:19:18;;;;;;;;;;;5.30;60.80;;;;;;5055244;28;19921;-73
2022/03/12 05:21:43;;;;;;;;;;;5.20;61.20;;;;;;5055365;28;19921;-73
2022/03/12 05:24:10;;;;;;;;;;;5.10;61.30;;;;;;5073109;28;19921;-73
2022/03/12 05:26:35;;;;;;;;;;;5.20;61.50;;;;;;5055144;28;20011;-74
2022/03/12 05:29:01;;;;;;;;;;;5.10;61.70;;;;;;5054932;28;19963;-74
2022/03/12 05:31:26;;;;;;;;;;;5.00;61.90;;;;;;5037075;28;20434;-74
2022/03/12 05:33:52;;;;;;;;;;;5.00;62.30;;;;;;5072909;28;19920;-74
2022/03/12 05:36:17;;;;;;;;;;;5.00;62.20;;;;;;5072060;28;19920;-75
2022/03/12 05:38:43;;;;;;;;;;;4.90;62.50;;;;;;5074253;28;19920;-73
2022/03/12 05:41:12;;;;;;;;;;;4.90;63.10;;;;;;5039649;28;20303;-75
2022/03/12 05:43:40;;;;;;;;;;;5.00;63.20;;;;;;5072666;28;19962;-78
2022/03/12 05:46:05;;;;;;;;;;;5.00;63.10;;;;;;5039156;28;20256;-81
2022/03/12 05:48:32;;;;;;;;;;;5.10;63.10;;;;;;5055922;28;19920;-77
2022/03/12 05:50:59;;;;;;;;;;;5.10;63.20;;;;;;5054584;28;20450;-76
2022/03/12 05:53:25;;;;;;;;;;;5.20;63.30;;;;;;5072742;28;19921;-78
2022/03/12 05:55:51;;;;;;;;;;;5.20;63.40;;;;;;5073878;28;20305;-73
2022/03/12 05:58:18;;;;;;;;;;;5.20;63.80;;;;;;5055277;28;20022;-76
2022/03/12 06:00:43;;;;;;;;;;;5.20;63.40;;;;;;5055572;28;19967;-77
2022/03/12 06:03:10;;;;;;;;;;;5.30;63.80;;;;;;5074329;28;19928;-77
2022/03/12 06:05:40;;;;;;;;;;;5.40;63.40;;;;;;5080951;28;19927;-76
2022/03/12 06:08:06;;;;;;;;;;;5.40;63.80;;;;;;5055349;28;20375;-75
2022/03/12 06:10:34;;;;;;;;;;;5.50;63.40;;;;;;5057988;28;19924;-76
2022/03/12 06:13:00;;;;;;;;;;;5.50;63.90;;;;;;5054238;28;19939;-75
2022/03/12 06:15:26;;;;;;;;;;;5.50;63.90;;;;;;5072210;28;20324;-75
2022/03/12 06:17:52;;;;;;;;;;;5.60;63.50;;;;;;5050852;28;20007;-75
2022/03/12 06:20:20;;;;;;;;;;;5.60;63.80;;;;;;5064769;28;19986;-75
2022/03/12 06:22:46;;;;;;;;;;;5.70;63.50;;;;;;5056396;28;19921;-76
2022/03/12 06:25:13;;;;;;;;;;;5.70;63.90;;;;;;5037131;28;20015;-76
2022/03/12 06:27:41;;;;;;;;;;;5.70;63.90;;;;;;5072139;28;20019;-76
2022/03/12 06:30:11;;;;;;;;;;;5.70;63.50;;;;;;5037687;28;20019;-76
2022/03/12 06:32:42;;;;;;;;;;;5.70;63.80;;;;;;5054979;28;20268;-76
2022/03/12 06:35:09;;;;;;;;;;;5.70;63.90;;;;;;5054700;28;20011;-76
2022/03/12 06:37:35;;;;;;;;;;;5.80;64.20;;;;;;5037116;28;19920;-76
2022/03/12 06:40:00;;;;;;;;;;;5.80;64.00;;;;;;5078228;28;20405;-75
2022/03/12 06:42:32;;;;;;;;;;;5.80;64.10;;;;;;5071234;28;20227;-75
2022/03/12 06:44:57;;;;;;;;;;;5.80;64.10;;;;;;5063139;28;20287;-75
2022/03/12 06:47:25;;;;;;;;;;;5.80;64.20;;;;;;5050802;28;20359;-75
2022/03/12 06:49:50;;;;;;;;;;;5.90;64.60;;;;;;5071608;28;19934;-75
2022/03/12 06:52:16;;;;;;;;;;;5.90;64.90;;;;;;5069668;28;20007;-75
2022/03/12 06:54:42;;;;;;;;;;;5.90;65.00;;;;;;5070069;28;20011;-75
2022/03/12 06:57:07;;;;;;;;;;;6.00;64.80;;;;;;5071210;28;19966;-75
2022/03/12 06:59:32;;;;;;;;;;;6.00;64.80;;;;;;5052136;28;20324;-75
2022/03/12 07:01:58;;;;;;;;;;;6.00;65.60;;;;;;5071286;28;19925;-75
2022/03/12 07:04:26;;;;;;;;;;;6.10;65.20;;;;;;5073868;28;20302;-72
2022/03/12 07:06:52;;;;;;;;;;;6.20;65.10;;;;;;5067108;28;19920;-75
2022/03/12 07:09:18;;;;;;;;;;;6.20;65.90;;;;;;5073230;28;19927;-74
2022/03/12 07:11:43;;;;;;;;;;;6.20;65.60;;;;;;5071622;28;19924;-73
2022/03/12 07:14:09;;;;;;;;;;;6.30;65.90;;;;;;5050529;28;19921;-75
2022/03/12 07:16:34;;;;;;;;;;;6.40;65.70;;;;;;5072556;28;19928;-74
2022/03/12 07:19:01;;;;;;;;;;;6.40;65.90;;;;;;5075067;28;19924;-74
2022/03/12 07:21:27;;;;;;;;;;;6.40;66.50;;;;;;5064456;28;19921;-75
2022/03/12 07:23:53;;;;;;;;;;;6.50;66.00;;;;;;5074132;28;19935;-74
2022/03/12 07:26:20;;;;;;;;;;;6.50;65.00;;;;;;5076981;28;19920;-75
2022/03/12 07:28:46;;;;;;;;;;;6.60;64.70;;;;;;5073581;28;20387;-76
2022/03/12 07:31:12;;;;;;;;;;;6.70;64.40;;;;;;5074656;28;19982;-81
2022/03/12 07:33:41;;;;;;;;;;;6.90;64.20;;;;;;5056932;28;19928;-78
2022/03/12 07:36:06;;;;;;;;;;;7.10;63.00;;;;;;5073941;28;19920;-74
2022/03/12 07:38:32;;;;;;;;;;;7.30;63.10;;;;;;5072335;28;19920;-76
2022/03/12 07:40:58;;;;;;;;;;;7.50;62.70;;;;;;5074905;28;19920;-75
2022/03/12 07:43:23;;;;;;;;;;;7.70;62.20;;;;;;5074009;28;20334;-77
2022/03/12 07:45:49;;;;;;;;;;;7.80;62.50;;;;;;5074814;28;19928;-75
2022/03/12 07:48:14;;;;;;;;;;;8.00;62.30;;;;;;5075145;28;19929;-76
2022/03/12 07:50:40;;;;;;;;;;;8.00;60.90;;;;;;5072233;28;19940;-75
2022/03/12 07:53:05;;;;;;;;;;;8.10;61.30;;;;;;5056364;28;19920;-76
2022/03/12 07:55:31;;;;;;;;;;;8.10;61.00;;;;;;5074758;28;19921;-75
2022/03/12 07:57:56;;;;;;;;;;;8.30;61.50;;;;;;5058549;28;19995;-76
2022/03/12 08:00:28;;;;;;;;;;;8.40;60.70;;;;;;5074203;28;19966;-76
2022/03/12 08:02:54;;;;;;;;;;;8.40;61.00;;;;;;5074872;28;19946;-76
2022/03/12 08:05:23;;;;;;;;;;;8.40;61.00;;;;;;5074278;28;20042;-76
2022/03/12 08:07:50;;;;;;;;;;;8.50;60.90;;;;;;5074232;28;20047;-76
2022/03/12 08:10:15;;;;;;;;;;;8.60;61.40;;;;;;5074311;28;20263;-76
2022/03/12 08:12:41;;;;;;;;;;;8.70;61.60;;;;;;5074495;28;19924;-76
2022/03/12 08:15:08;;;;;;;;;;;8.90;61.60;;;;;;5073710;28;19963;-76
2022/03/12 08:17:34;;;;;;;;;;;9.00;61.80;;;;;;5056261;28;19920;-76
2022/03/12 08:19:59;;;;;;;;;;;9.10;61.40;;;;;;5039571;28;19947;-75
2022/03/12 08:22:25;;;;;;;;;;;9.30;61.70;;;;;;5055888;28;19920;-75
2022/03/12 08:24:51;;;;;;;;;;;9.40;61.70;;;;;;5074038;28;19962;-75
2022/03/12 08:27:16;;;;;;;;;;;9.60;61.90;;;;;;5056382;28;20374;-75
2022/03/12 08:29:43;;;;;;;;;;;9.70;62.00;;;;;;5062888;28;19927;-75
2022/03/12 08:32:09;;;;;;;;;;;9.90;61.40;;;;;;5095141;28;19920;-76
2022/03/12 08:34:36;;;;;;;;;;;10.00;62.20;;;;;;5080709;28;20409;-75
2022/03/12 08:37:03;;;;;;;;;;;10.20;61.90;;;;;;5077083;28;19920;-75
2022/03/12 08:39:28;;;;;;;;;;;10.20;61.90;;;;;;5073452;28;19920;-75
2022/03/12 08:41:54;;;;;;;;;;;10.30;61.70;;;;;;5073359;28;19920;-75
2022/03/12 08:44:20;;;;;;;;;;;10.30;62.30;;;;;;5073566;28;19942;-75
2022/03/12 08:46:46;;;;;;;;;;;10.50;62.50;;;;;;5073221;28;19920;-76
2022/03/12 08:49:12;;;;;;;;;;;10.60;62.50;;;;;;5073618;28;19987;-75
2022/03/12 08:51:38;;;;;;;;;;;10.70;63.20;;;;;;5073805;28;20017;-75
2022/03/12 08:54:05;;;;;;;;;;;10.80;63.40;;;;;;5072346;28;20061;-76
2022/03/12 08:56:31;;;;;;;;;;;10.90;64.20;;;;;;5073898;28;19924;-76
2022/03/12 08:58:57;;;;;;;;;;;11.00;65.00;;;;;;5073477;28;19973;-76
2022/03/12 09:01:23;;;;;;;;;;;11.10;65.30;;;;;;5055739;28;19968;-75
2022/03/12 09:03:49;;;;;;;;;;;11.20;65.10;;;;;;5072851;28;20379;-75
2022/03/12 09:06:15;;;;;;;;;;;11.30;65.10;;;;;;5073321;28;20019;-75
2022/03/12 09:08:41;;;;;;;;;;;11.40;65.10;;;;;;5073810;28;20332;-75
2022/03/12 09:11:06;;;;;;;;;;;11.40;65.40;;;;;;5072990;28;19930;-75
2022/03/12 09:13:32;;;;;;;;;;;11.50;65.60;;;;;;5071954;28;19999;-76
2022/03/12 09:15:58;;;;;;;;;;;11.50;65.90;;;;;;5073359;28;19920;-76
2022/03/12 09:18:24;;;;;;;;;;;11.60;65.50;;;;;;5071923;28;20367;-76
2022/03/12 09:20:49;;;;;;;;;;;11.70;66.00;;;;;;5072726;28;19921;-76
2022/03/12 09:23:20;;;;;;;;;;;11.90;66.40;;;;;;5073164;28;20015;-76
2022/03/12 09:25:46;;;;;;;;;;;11.90;66.50;;;;;;5072517;28;20044;-76
2022/03/12 09:28:13;;;;;;;;;;;12.00;66.50;;;;;;5072949;28;20258;-76
2022/03/12 09:30:38;;;;;;;;;;;12.10;66.70;;;;;;5071824;28;20256;-76
2022/03/12 09:33:04;;;;;;;;;;;12.10;66.40;;;;;;5072784;28;19931;-76
2022/03/12 09:35:31;;;;;;;;;;;12.20;66.40;;;;;;5073033;28;20389;-76
2022/03/12 09:37:57;;;;;;;;;;;12.30;66.60;;;;;;5073159;28;20287;-76
2022/03/12 09:40:23;;;;;;;;;;;12.40;67.60;;;;;;5072547;28;19927;-75
2022/03/12 09:42:48;;;;;;;;;;;12.40;67.20;;;;;;5055001;28;20329;-74
2022/03/12 09:45:14;;;;;;;;;;;12.50;67.50;;;;;;5080928;28;19920;-76
2022/03/12 09:47:40;;;;;;;;;;;12.50;66.80;;;;;;5054862;28;20001;-76
2022/03/12 09:50:06;;;;;;;;;;;12.50;67.60;;;;;;5072006;28;19920;-76
2022/03/12 09:52:32;;;;;;;;;;;12.60;67.20;;;;;;5055023;28;20272;-76
2022/03/12 09:54:57;;;;;;;;;;;12.60;68.30;;;;;;5029648;28;19927;-77
2022/03/12 09:57:23;;;;;;;;;;;12.70;68.10;;;;;;5048884;28;19974;-77
2022/03/12 09:59:49;;;;;;;;;;;12.80;68.30;;;;;;5052581;28;20382;-77
2022/03/12 10:02:14;;;;;;;;;;;12.90;68.30;;;;;;5038201;28;19921;-76
2022/03/12 10:04:40;;;;;;;;;;;13.00;68.30;;;;;;5071817;28;20011;-76
2022/03/12 10:07:09;;;;;;;;;;;13.00;68.10;;;;;;5071387;28;19924;-77
2022/03/12 10:09:35;;;;;;;;;;;13.20;68.90;;;;;;5036839;28;19925;-75
2022/03/12 10:12:00;;;;;;;;;;;13.30;69.30;;;;;;5070716;28;19994;-76
2022/03/12 10:14:26;;;;;;;;;;;13.40;70.10;;;;;;5070676;28;19971;-76
2022/03/12 10:16:51;;;;;;;;;;;13.50;70.80;;;;;;5071304;28;19977;-76
2022/03/12 10:19:19;;;;;;;;;;;13.60;71.40;;;;;;5053723;28;20003;-75
2022/03/12 10:21:45;;;;;;;;;;;13.50;73.90;;;;;;5072598;28;20268;-77
2022/03/12 10:24:14;;;;;;;;;;;13.60;76.60;;;;;;5054926;28;19924;-76
2022/03/12 10:26:41;;;;;;;;;;;13.50;78.50;;;;;;5071814;28;19974;-76
2022/03/12 10:29:07;;;;;;;;;;;13.50;81.60;;;;;;5072383;28;20011;-76
2022/03/12 10:31:34;;;;;;;;;;;13.70;81.60;;;;;;5053696;28;20029;-76
2022/03/12 10:34:15;;;;;;;;;;;13.70;81.50;;;;;;5071955;28;19936;-76
2022/03/12 10:36:41;;;;;;;;;;;13.70;83.60;;;;;;5071427;28;19925;-76
2022/03/12 10:39:06;;;;;;;;;;;13.70;90.10;;;;;;5071722;28;19943;-77
2022/03/12 10:41:32;;;;;;;;;;;13.70;91.10;;;;;;5072063;28;20007;-76
2022/03/12 10:43:58;;;;;;;;;;;13.60;92.70;;;;;;5037825;28;20312;-76
2022/03/12 10:46:25;;;;;;;;;;;13.60;92.00;;;;;;5052829;28;19921;-75
2022/03/12 10:48:57;;;;;;;;;;;13.70;93.40;;;;;;5066909;28;20428;-75
2022/03/12 10:51:25;;;;;;;;;;;13.70;93.80;;;;;;5091241;28;20351;-75
2022/03/12 10:53:51;;;;;;;;;;;13.70;95.30;;;;;;5056131;28;20041;-75
2022/03/12 10:56:17;;;;;;;;;;;13.60;94.40;;;;;;5071255;28;19924;-75
2022/03/12 10:58:43;;;;;;;;;;;13.60;96.50;;;;;;5076137;28;19973;-75
2022/03/12 11:01:08;;;;;;;;;;;13.70;98.30;;;;;;5053682;28;19924;-75
2022/03/12 11:03:37;;;;;;;;;;;13.70;97.10;;;;;;5040969;28;19921;-75
2022/03/12 11:06:04;;;;;;;;;;;13.70;97.50;;;;;;5072708;28;19924;-76
2022/03/12 11:08:31;;;;;;;;;;;13.90;97.50;;;;;;5072000;28;19970;-76
2022/03/12 11:11:11;;;;;;;;;;;14.00;98.80;;;;;;5072185;28;19920;-75
2022/03/12 11:13:41;;;;;;;;;;;14.00;98.20;;;;;;5056720;28;20010;-75
2022/03/12 11:16:11;;;;;;;;;;;14.00;98.50;;;;;;5074009;28;19920;-75
2022/03/12 11:18:36;;;;;;;;;;;14.00;97.80;;;;;;5060214;28;19970;-75
2022/03/12 11:21:02;;;;;;;;;;;14.00;98.40;;;;;;5071679;28;19924;-75
2022/03/12 11:23:31;;;;;;;;;;;14.10;98.70;;;;;;5072153;28;19943;-75
2022/03/12 11:25:58;;;;;;;;;;;14.10;98.50;;;;;;5041775;28;20008;-75
2022/03/12 11:28:24;;;;;;;;;;;14.10;98.80;;;;;;5074228;28;19921;-76
2022/03/12 11:30:50;;;;;;;;;;;14.10;99.30;;;;;;5062814;28;19986;-76
2022/03/12 11:33:16;;;;;;;;;;;14.10;99.90;;;;;;5035555;28;19921;-76
2022/03/12 11:35:46;;;;;;;;;;;14.10;99.10;;;;;;5070905;28;20358;-75
2022/03/12 11:38:19;;;;;;;;;;;14.10;99.70;;;;;;5037295;28;19972;-76
2022/03/12 11:40:49;;;;;;;;;;;14.10;99.90;;;;;;5071840;28;20343;-75
2022/03/12 11:43:21;;;;;;;;;;;14.10;99.30;;;;;;5071754;28;20275;-75
2022/03/12 11:45:47;;;;;;;;;;;14.10;99.20;;;;;;5071862;28;19920;-76
2022/03/12 11:48:13;;;;;;;;;;;14.10;99.90;;;;;;5071209;28;19980;-76
2022/03/12 11:50:38;;;;;;;;;;;14.10;99.90;;;;;;5071263;28;20004;-76
2022/03/12 11:53:04;;;;;;;;;;;14.10;99.30;;;;;;5035449;28;20311;-75
2022/03/12 11:55:30;;;;;;;;;;;14.50;99.90;;;;;;5071008;28;20105;-76
2022/03/12 11:57:57;;;;;;;;;;;14.60;99.90;;;;;;5071396;28;20119;-75
2022/03/12 12:00:24;;;;;;;;;;;14.60;98.10;;;;;;5070318;28;19920;-75
2022/03/12 12:02:52;;;;;;;;;;;14.50;97.00;;;;;;5071072;28;19920;-75
2022/03/12 12:05:19;;;;;;;;;;;14.70;98.40;;;;;;5071658;28;20358;-76
2022/03/12 12:07:47;;;;;;;;;;;14.80;96.80;;;;;;5052627;28;20359;-76
2022/03/12 12:10:13;;;;;;;;;;;14.80;97.00;;;;;;5038924;28;19925;-76
2022/03/12 12:12:39;;;;;;;;;;;14.80;97.90;;;;;;5076436;28;19940;-76
2022/03/12 12:15:07;;;;;;;;;;;14.70;96.90;;;;;;5055426;28;19946;-76
2022/03/12 12:17:32;;;;;;;;;;;14.90;96.70;;;;;;5056754;28;19931;-76
2022/03/12 12:19:58;;;;;;;;;;;14.80;94.40;;;;;;5057579;28;19936;-77
2022/03/12 12:22:24;;;;;;;;;;;14.90;93.40;;;;;;5040620;28;19920;-77
2022/03/12 12:24:53;;;;;;;;;;;15.00;95.50;;;;;;5039870;28;20307;-76
2022/03/12 12:27:23;;;;;;;;;;;15.10;95.10;;;;;;5075573;28;19920;-77
2022/03/12 12:29:55;;;;;;;;;;;15.10;92.50;;;;;;5056921;28;19927;-76
2022/03/12 12:32:20;;;;;;;;;;;15.30;94.20;;;;;;5056980;28;19934;-77
2022/03/12 12:35:04;;;;;;;;;;;15.30;91.30;;;;;;5072807;28;20159;-77
2022/03/12 12:37:38;;;;;;;;;;;15.30;91.20;;;;;;5070417;28;20003;-76
2022/03/12 12:40:21;;;;;;;;;;;15.30;90.70;;;;;;5055527;28;20382;-77
2022/03/12 12:42:48;;;;;;;;;;;15.20;88.80;;;;;;5064227;28;20286;-77
2022/03/12 12:45:15;;;;;;;;;;;15.10;88.60;;;;;;5056391;28;19920;-76
2022/03/12 12:47:41;;;;;;;;;;;15.10;89.10;;;;;;5074338;28;20262;-77
2022/03/12 12:50:17;;;;;;;;;;;15.00;87.50;;;;;;5074099;28;19985;-77
2022/03/12 12:53:03;;;;;;;;;;;15.00;88.40;;;;;;5070603;28;19931;-77
2022/03/12 12:55:31;;;;;;;;;;;15.00;91.10;;;;;;5062753;28;20265;-77
2022/03/12 12:57:57;;;;;;;;;;;15.10;91.80;;;;;;5071966;28;20248;-76
2022/03/12 13:00:30;;;;;;;;;;;15.20;91.30;;;;;;5064308;28;19920;-76
2022/03/12 13:02:57;;;;;;;;;;;15.20;90.30;;;;;;5073707;28;19921;-77
2022/03/12 13:05:41;;;;;;;;;;;15.30;91.00;;;;;;5057651;28;20015;-73
2022/03/12 13:08:07;;;;;;;;;;;15.30;87.10;;;;;;5054238;28;20359;-77
2022/03/12 13:10:33;;;;;;;;;;;15.30;87.70;;;;;;5019406;28;19932;-77
2022/03/12 13:13:09;;;;;;;;;;;15.10;89.80;;;;;;5068991;28;20429;-77
2022/03/12 13:15:39;;;;;;;;;;;15.20;85.70;;;;;;5072435;28;19928;-77
2022/03/12 13:18:30;;;;;;;;;;;15.30;85.50;;;;;;5073260;28;19921;-77
2022/03/12 13:20:56;;;;;;;;;;;15.30;85.10;;;;;;5071741;28;20398;-77
2022/03/12 13:23:40;;;;;;;;;;;15.40;84.30;;;;;;5075552;28;19920;-77
2022/03/12 13:26:13;;;;;;;;;;;15.40;82.30;;;;;;5055442;28;19920;-77
2022/03/12 13:28:40;;;;;;;;;;;15.50;83.00;;;;;;5055799;28;20373;-77
2022/03/12 13:31:16;;;;;;;;;;;15.50;84.10;;;;;;5044049;28;20279;-77
2022/03/12 13:33:41;;;;;;;;;;;15.60;83.30;;;;;;5055915;28;19920;-76
2022/03/12 13:36:18;;;;;;;;;;;15.50;82.80;;;;;;5055589;28;20229;-77
2022/03/12 13:38:44;;;;;;;;;;;15.40;82.10;;;;;;5055095;28;19927;-77
2022/03/12 13:41:13;;;;;;;;;;;15.50;81.40;;;;;;5072843;28;20290;-77
2022/03/12 13:43:38;;;;;;;;;;;15.40;80.80;;;;;;5073000;28;19924;-77
2022/03/12 13:46:04;;;;;;;;;;;15.60;80.10;;;;;;5055129;28;19973;-77
2022/03/12 13:48:30;;;;;;;;;;;15.80;79.90;;;;;;5073435;28;19920;-77
2022/03/12 13:50:59;;;;;;;;;;;15.80;78.90;;;;;;5072472;28;19920;-76
2022/03/12 13:53:28;;;;;;;;;;;15.80;78.60;;;;;;5072853;28;19920;-77
2022/03/12 13:56:03;;;;;;;;;;;15.80;78.40;;;;;;5073096;28;19921;-77
2022/03/12 13:58:30;;;;;;;;;;;15.90;79.00;;;;;;5072583;28;19920;-77
2022/03/12 14:00:58;;;;;;;;;;;15.80;79.40;;;;;;5072631;28;19927;-77
2022/03/12 14:03:27;;;;;;;;;;;15.90;77.90;;;;;;5073558;28;19920;-76
2022/03/12 14:05:52;;;;;;;;;;;15.90;75.00;;;;;;5072741;28;20019;-77
2022/03/12 14:08:19;;;;;;;;;;;15.70;69.80;;;;;;5072519;28;20316;-77
2022/03/12 14:10:45;;;;;;;;;;;15.70;74.10;;;;;;5072620;28;19935;-76
2022/03/12 14:13:11;;;;;;;;;;;15.70;72.20;;;;;;5054195;28;20027;-77
2022/03/12 14:15:37;;;;;;;;;;;15.80;75.10;;;;;;5072238;28;20400;-77
2022/03/12 14:18:06;;;;;;;;;;;15.80;75.00;;;;;;5072245;28;20011;-77
2022/03/12 14:20:42;;;;;;;;;;;15.90;75.10;;;;;;5054471;28;19921;-76
2022/03/12 14:23:08;;;;;;;;;;;16.00;76.30;;;;;;5072543;28;19928;-77
2022/03/12 14:25:34;;;;;;;;;;;16.10;75.40;;;;;;5058499;28;19927;-76